AirNav   Bose Proflight Series 2 Wireless Aviation Headset
 
 943 users online  

3TA5 Blanco Landing Airport
Blanco, Texas, USA

GOING TO BLANCO?


FAA INFORMATION EFFECTIVE 07 NOVEMBER 2019

Location

FAA Identifier: 3TA5
Lat/Long: 30-07-20.8800N 098-22-29.2200W
30-07.348000N 098-22.487000W
30.1224667,-98.3747833
(estimated)
Elevation: 1460 ft. / 445 m (estimated)
Variation: 07E (1985)
From city: 3 miles NE of BLANCO, TX
Time zone: UTC -6 (UTC -5 during Daylight Saving Time)
Zip code: 78606

Airport Operations

Airport use: Private use. Permission required prior to landing
Activation date: 03/1981
Control tower: no
ARTCC: HOUSTON CENTER
FSS: SAN ANGELO FLIGHT SERVICE STATION
Attendance: UNATNDD
Wind indicator: yes
Segmented circle: no

Airport Communications

CTAF: 122.9

Nearby radio navigation aids

VOR radial/distance  VOR name  Freq  Var
STVr098/17.9STONEWALL VORTAC113.8008E
SATr001/29.1SAN ANTONIO VORTAC116.8008E
RNDr348/36.5RANDOLPH VORTAC112.3005E

Airport Services

Runway Information

Runway 1/19

Dimensions: 3450 x 27 ft. / 1052 x 8 m
Surface: asphalt
RUNWAY 1  RUNWAY 19
Traffic pattern: leftleft

Airport Ownership and Management from official FAA records

Ownership: Privately-owned
Owner: THE LANDING P.O.A.
3238 HWY 281 N
BLANCO, TX 78606
Phone (512) 461-5158
OTR: 915-525-7792
Manager: BOARD OF DIRECTORS
3238 HWY 281 N
BLANCO, TX 78606
Phone (512) 918-8100

Airport Operational Statistics

Aircraft based on the field: 9
Single engine airplanes: 8
Helicopters: 1
    

Additional Remarks

FOR CD CTC HOUSTON ARTCC AT 281-230-5622.

Instrument Procedures

There are no published instrument procedures at 3TA5.

Some nearby airports with instrument procedures:

3R9 - Lakeway Airpark (24 nm NE)
T82 - Gillespie County Airport (29 nm W)
5C1 - Boerne Stage Field Airport (29 nm SW)
KHYI - San Marcos Regional Airport (30 nm SE)
KBAZ - New Braunfels Regional Airport (30 nm SE)
 
Loc | Ops | Rwys | IFR | FBO | Links
Com | Nav | Svcs | Stats | Notes
Area around 3TA5 (Blanco Landing Airport)
 
Road maps at: MapQuest Bing Google
 
Aerial photo
WARNING: Photo may not be current or correct
Aerial photo of 3TA5 (Blanco Landing Airport)
Photo taken 18-Jul-2017
looking south.

Do you have a better or more recent aerial photo of Blanco Landing Airport that you would like to share? If so, please send us your photo.

 
Sectional chart

 
Airport distance calculator
Flying to Blanco Landing Airport? Find the distance to fly.

From to 3TA5

Sunrise and sunset
Times for 17-Nov-2019
 Local
(UTC-6)
 Zulu
(UTC)
Morning civil twilight06:3612:36
Sunrise07:0213:02
Sunset17:3523:35
Evening civil twilight18:0100:01

Current date and time
Zulu (UTC)  18-Nov-2019 03:13:52
Local (UTC-6)  17-Nov-2019 21:13:52
 
METAR
KDZB 
24nm N 
180300Z AUTO 19003KT 10SM CLR 10/08 A3006 RMK AO2
KT82 
29nm W 
180255Z AUTO 29003KT 10SM CLR 11/07 A3007 RMK AO2 T01050074
K5C1 
29nm SW 
180255Z AUTO 00000KT 10SM CLR 10/10 A3007 RMK AO1
KBAZ 
30nm SE 
180251Z AUTO 10SM CLR 12/10 A3003 RMK AO2 SLP166 T01170100 51009 $
KHYI 
30nm SE 
180256Z AUTO 32003KT 10SM CLR 11/09 A3004 RMK AO2 SLP170 T01110094 51007
KRYW 
31nm NE 
180255Z AUTO 00000KT 10SM CLR 14/09 A3005 RMK AO2 T01410091
KSAT 
36nm S 
180251Z 29003KT 10SM FEW250 13/11 A3004 RMK AO2 SLP163 T01330106 51012
KAUS 
36nm E 
180253Z 00000KT 10SM SCT250 10/08 A3003 RMK AO2 SLP171 T01000083 51007
KATT 
37nm E 
180251Z AUTO 00000KT 10SM CLR 13/10 A3004 RMK AO2 SLP173 T01280100 51006 $
KRND 
37nm S 
180256Z AUTO 33004KT 10SM CLR 12/11 A3004 RMK AO2 SLP172 T01190106 52012
TAF
KSAT 
36nm S 
172033Z 1721/1824 20005KT P6SM FEW030 BKN250 FM172200 33004KT P6SM BKN250
KAUS 
36nm E 
171720Z 1718/1824 19005KT P6SM BKN040 FM182300 33005KT P6SM SCT250
KRND 
37nm S 
171800Z 1718/1824 VRB06KT 9999 BKN024 QNH3000INS BECMG 1720/1721 VRB06KT 9999 SCT030 SCT050 QNH2998INS BECMG 1802/1803 34006KT 9999 FEW020 FEW030 QNH3005INS BECMG 1808/1809 34006KT 9999 SKC QNH3003INS TX20/1721Z TN08/1813Z LAST NO AMDS AFT 1800 NEXT 1810
NOTAMs
Click for the latest NOTAMs
NOTAMs are issued by the DoD/FAA and will open in a separate window not controlled by AirNav.

 

 
 

Would you like to see your business listed on this page?

 If your business provides an interesting product or service to pilots, flight crews, aircraft, or users of the Blanco Landing Airport, you should consider listing it here.  To start the listing process, click on the button below
 
Add a business
 

Other Pages about Blanco Landing Airport

Update a link
 
Copyright © AirNav, LLC. All rights reserved. Privacy Policy  Contact